sensor_id;sensor_type;location;lat;lon;timestamp;pressure;altitude;pressure_sealevel;temperature;humidity
20160;BME280;50187;50.492;12.134;2023-04-05T00:00:49;98253.88;;;20.06;29.71
20160;BME280;50187;50.492;12.134;2023-04-05T00:03:34;98250.31;;;20.06;29.60
20160;BME280;50187;50.492;12.134;2023-04-05T00:06:20;98248.34;;;20.08;29.79
20160;BME280;50187;50.492;12.134;2023-04-05T00:09:12;98244.78;;;20.07;29.71
20160;BME280;50187;50.492;12.134;2023-04-05T00:11:57;98240.94;;;20.10;29.55
20160;BME280;50187;50.492;12.134;2023-04-05T00:14:43;98238.53;;;20.07;29.47
20160;BME280;50187;50.492;12.134;2023-04-05T00:17:28;98236.53;;;20.09;29.65
20160;BME280;50187;50.492;12.134;2023-04-05T00:20:15;98237.56;;;20.08;29.53
20160;BME280;50187;50.492;12.134;2023-04-05T00:23:00;98233.81;;;20.09;29.71
20160;BME280;50187;50.492;12.134;2023-04-05T00:25:45;98236.69;;;20.07;29.61
20160;BME280;50187;50.492;12.134;2023-04-05T00:28:31;98229.44;;;20.08;29.50
20160;BME280;50187;50.492;12.134;2023-04-05T00:31:16;98234.97;;;20.06;29.63
20160;BME280;50187;50.492;12.134;2023-04-05T00:34:02;98231.56;;;20.04;29.81
20160;BME280;50187;50.492;12.134;2023-04-05T00:36:47;98233.28;;;20.05;29.84
20160;BME280;50187;50.492;12.134;2023-04-05T00:39:33;98223.03;;;19.99;29.94
20160;BME280;50187;50.492;12.134;2023-04-05T00:42:18;98230.00;;;20.02;29.71
20160;BME280;50187;50.492;12.134;2023-04-05T00:45:04;98218.22;;;20.03;29.67
20160;BME280;50187;50.492;12.134;2023-04-05T00:47:49;98218.22;;;20.03;29.83
20160;BME280;50187;50.492;12.134;2023-04-05T00:50:35;98219.06;;;20.03;29.71
20160;BME280;50187;50.492;12.134;2023-04-05T00:53:20;98219.34;;;20.00;29.83
20160;BME280;50187;50.492;12.134;2023-04-05T00:56:07;98214.53;;;20.04;29.94
20160;BME280;50187;50.492;12.134;2023-04-05T00:58:52;98217.22;;;20.04;29.71
20160;BME280;50187;50.492;12.134;2023-04-05T01:01:39;98211.53;;;20.07;29.79
20160;BME280;50187;50.492;12.134;2023-04-05T01:04:26;98210.81;;;20.05;29.83
20160;BME280;50187;50.492;12.134;2023-04-05T01:07:24;98207.13;;;20.06;29.86
20160;BME280;50187;50.492;12.134;2023-04-05T01:10:15;98207.97;;;20.06;29.66
20160;BME280;50187;50.492;12.134;2023-04-05T01:13:01;98211.38;;;20.08;29.85
20160;BME280;50187;50.492;12.134;2023-04-05T01:15:48;98200.00;;;20.05;29.95
20160;BME280;50187;50.492;12.134;2023-04-05T01:18:33;98201.72;;;20.06;29.86
20160;BME280;50187;50.492;12.134;2023-04-05T01:24:43;98201.72;;;20.06;29.98
20160;BME280;50187;50.492;12.134;2023-04-05T01:30:36;98201.72;;;20.06;29.86
20160;BME280;50187;50.492;12.134;2023-04-05T01:33:36;98196.31;;;20.06;29.88
20160;BME280;50187;50.492;12.134;2023-04-05T01:36:35;98200.31;;;20.02;29.84
20160;BME280;50187;50.492;12.134;2023-04-05T01:39:23;98177.59;;;19.95;29.96
20160;BME280;50187;50.492;12.134;2023-04-05T01:42:10;98190.38;;;20.02;29.75
20160;BME280;50187;50.492;12.134;2023-04-05T01:44:57;98186.81;;;20.02;29.98
20160;BME280;50187;50.492;12.134;2023-04-05T01:47:42;98189.50;;;20.02;29.98
20160;BME280;50187;50.492;12.134;2023-04-05T01:50:28;98183.41;;;20.00;29.87
20160;BME280;50187;50.492;12.134;2023-04-05T01:53:15;98188.50;;;20.03;30.00
20160;BME280;50187;50.492;12.134;2023-04-05T01:56:00;98177.13;;;19.99;30.01
20160;BME280;50187;50.492;12.134;2023-04-05T01:58:46;98188.34;;;20.04;29.88
20160;BME280;50187;50.492;12.134;2023-04-05T02:01:31;98183.13;;;20.03;29.88
20160;BME280;50187;50.492;12.134;2023-04-05T02:04:17;98173.16;;;20.03;30.02
20160;BME280;50187;50.492;12.134;2023-04-05T02:07:02;98171.88;;;19.98;29.95
20160;BME280;50187;50.492;12.134;2023-04-05T02:09:47;98191.22;;;20.03;29.91
20160;BME280;50187;50.492;12.134;2023-04-05T02:12:33;98193.19;;;20.01;29.82
20160;BME280;50187;50.492;12.134;2023-04-05T02:15:18;98194.59;;;20.05;29.81
20160;BME280;50187;50.492;12.134;2023-04-05T02:18:03;98184.81;;;20.04;29.81
20160;BME280;50187;50.492;12.134;2023-04-05T02:20:49;98178.41;;;20.05;29.83
20160;BME280;50187;50.492;12.134;2023-04-05T02:23:37;98177.56;;;20.04;30.02
20160;BME280;50187;50.492;12.134;2023-04-05T02:26:22;98175.84;;;20.03;29.83
20160;BME280;50187;50.492;12.134;2023-04-05T02:29:08;98179.69;;;20.01;29.93
20160;BME280;50187;50.492;12.134;2023-04-05T02:31:53;98177.72;;;20.03;30.02
20160;BME280;50187;50.492;12.134;2023-04-05T02:34:38;98187.38;;;20.05;29.97
20160;BME280;50187;50.492;12.134;2023-04-05T02:37:25;98173.31;;;20.02;29.83
20160;BME280;50187;50.492;12.134;2023-04-05T02:40:12;98177.72;;;20.03;29.97
20160;BME280;50187;50.492;12.134;2023-04-05T02:42:58;98171.59;;;20.01;30.12
20160;BME280;50187;50.492;12.134;2023-04-05T02:45:44;98173.88;;;20.05;30.00
20160;BME280;50187;50.492;12.134;2023-04-05T02:48:31;98174.84;;;20.04;30.03
20160;BME280;50187;50.492;12.134;2023-04-05T02:51:18;98175.00;;;20.03;29.89
20160;BME280;50187;50.492;12.134;2023-04-05T02:54:03;98181.97;;;20.05;29.75
20160;BME280;50187;50.492;12.134;2023-04-05T02:56:51;98173.31;;;20.02;29.95
20160;BME280;50187;50.492;12.134;2023-04-05T02:59:39;98175.31;;;20.00;29.88
20160;BME280;50187;50.492;12.134;2023-04-05T03:02:24;98179.28;;;20.05;29.84
20160;BME280;50187;50.492;12.134;2023-04-05T03:05:11;98175.53;;;20.06;29.97
20160;BME280;50187;50.492;12.134;2023-04-05T03:08:00;98180.13;;;20.06;29.82
20160;BME280;50187;50.492;12.134;2023-04-05T03:10:53;98173.72;;;20.07;29.88
20160;BME280;50187;50.492;12.134;2023-04-05T03:13:38;98171.59;;;20.01;30.08
20160;BME280;50187;50.492;12.134;2023-04-05T03:16:29;98169.47;;;20.04;30.05
20160;BME280;50187;50.492;12.134;2023-04-05T03:19:18;98162.19;;;20.05;29.91
20160;BME280;50187;50.492;12.134;2023-04-05T03:22:09;98170.16;;;20.06;29.83
20160;BME280;50187;50.492;12.134;2023-04-05T03:24:55;98160.22;;;20.07;29.85
20160;BME280;50187;50.492;12.134;2023-04-05T03:27:41;98155.81;;;20.06;29.83
20160;BME280;50187;50.492;12.134;2023-04-05T03:30:36;98158.19;;;20.09;30.01
20160;BME280;50187;50.492;12.134;2023-04-05T03:33:33;98155.81;;;20.06;30.05
20160;BME280;50187;50.492;12.134;2023-04-05T03:36:17;98160.50;;;20.04;29.87
20160;BME280;50187;50.492;12.134;2023-04-05T03:39:09;98163.59;;;20.09;30.09
20160;BME280;50187;50.492;12.134;2023-04-05T03:41:55;98161.19;;;20.06;29.90
20160;BME280;50187;50.492;12.134;2023-04-05T03:44:40;98166.59;;;20.06;29.92
20160;BME280;50187;50.492;12.134;2023-04-05T03:47:25;98162.03;;;20.06;29.98
20160;BME280;50187;50.492;12.134;2023-04-05T03:50:11;98171.84;;;20.07;30.06
20160;BME280;50187;50.492;12.134;2023-04-05T03:52:57;98169.47;;;20.04;30.04
20160;BME280;50187;50.492;12.134;2023-04-05T03:55:42;98181.09;;;20.05;29.83
20160;BME280;50187;50.492;12.134;2023-04-05T03:58:37;98167.31;;;20.08;30.16
20160;BME280;50187;50.492;12.134;2023-04-05T04:01:23;98163.06;;;20.05;30.15
20160;BME280;50187;50.492;12.134;2023-04-05T04:04:09;98164.75;;;20.06;29.98
20160;BME280;50187;50.492;12.134;2023-04-05T04:06:55;98169.00;;;20.09;29.86
20160;BME280;50187;50.492;12.134;2023-04-05T04:09:43;98167.31;;;20.08;29.84
20160;BME280;50187;50.492;12.134;2023-04-05T04:12:30;98173.56;;;20.08;29.91
20160;BME280;50187;50.492;12.134;2023-04-05T04:15:18;98175.28;;;20.10;30.09
20160;BME280;50187;50.492;12.134;2023-04-05T04:18:19;98175.13;;;20.11;30.08
20160;BME280;50187;50.492;12.134;2023-04-05T04:21:34;98172.72;;;20.08;29.78
20160;BME280;50187;50.492;12.134;2023-04-05T04:24:48;98171.84;;;20.07;29.90
20160;BME280;50187;50.492;12.134;2023-04-05T04:28:11;98174.56;;;20.07;29.93
20160;BME280;50187;50.492;12.134;2023-04-05T04:31:15;98171.00;;;20.07;29.92
20160;BME280;50187;50.492;12.134;2023-04-05T04:34:29;98169.16;;;20.07;29.96
20160;BME280;50187;50.492;12.134;2023-04-05T04:37:49;98175.53;;;20.06;29.98
20160;BME280;50187;50.492;12.134;2023-04-05T04:40:56;98179.97;;;20.07;30.09
20160;BME280;50187;50.492;12.134;2023-04-05T04:43:52;98168.63;;;20.04;29.80
20160;BME280;50187;50.492;12.134;2023-04-05T04:47:16;98173.88;;;20.05;30.11
20160;BME280;50187;50.492;12.134;2023-04-05T04:50:26;98175.53;;;20.06;30.05
20160;BME280;50187;50.492;12.134;2023-04-05T04:53:11;98169.47;;;20.04;29.93
20160;BME280;50187;50.492;12.134;2023-04-05T04:55:57;98171.59;;;20.01;29.97
20160;BME280;50187;50.492;12.134;2023-04-05T04:58:42;98174.16;;;20.02;30.11
20160;BME280;50187;50.492;12.134;2023-04-05T05:01:28;98173.88;;;20.05;29.98
20160;BME280;50187;50.492;12.134;2023-04-05T05:04:14;98178.81;;;20.10;30.05
20160;BME280;50187;50.492;12.134;2023-04-05T05:07:00;98173.25;;;20.12;30.06
20160;BME280;50187;50.492;12.134;2023-04-05T05:09:45;98175.50;;;20.16;29.83
20160;BME280;50187;50.492;12.134;2023-04-05T05:12:30;98174.06;;;20.22;30.01
20160;BME280;50187;50.492;12.134;2023-04-05T05:15:15;98176.50;;;20.25;29.80
20160;BME280;50187;50.492;12.134;2023-04-05T05:18:00;98175.34;;;20.28;29.89
20160;BME280;50187;50.492;12.134;2023-04-05T05:20:49;98176.06;;;20.30;29.77
20160;BME280;50187;50.492;12.134;2023-04-05T05:23:35;98169.09;;;20.27;29.59
20160;BME280;50187;50.492;12.134;2023-04-05T05:26:21;98172.59;;;20.37;29.62
20160;BME280;50187;50.492;12.134;2023-04-05T05:29:06;98178.81;;;20.48;29.66
20160;BME280;50187;50.492;12.134;2023-04-05T05:31:55;98171.84;;;20.45;29.68
20160;BME280;50187;50.492;12.134;2023-04-05T05:34:41;98176.97;;;20.48;29.46
20160;BME280;50187;50.492;12.134;2023-04-05T05:37:33;98173.66;;;20.54;29.56
20160;BME280;50187;50.492;12.134;2023-04-05T05:40:18;98175.34;;;20.55;29.47
20160;BME280;50187;50.492;12.134;2023-04-05T05:43:03;98176.91;;;20.58;29.40
20160;BME280;50187;50.492;12.134;2023-04-05T05:45:49;98176.06;;;20.57;29.33
20160;BME280;50187;50.492;12.134;2023-04-05T05:48:34;98172.75;;;20.64;29.48
20160;BME280;50187;50.492;12.134;2023-04-05T05:51:20;98176.59;;;20.61;29.60
20160;BME280;50187;50.492;12.134;2023-04-05T05:54:05;98174.06;;;20.59;29.54
20160;BME280;50187;50.492;12.134;2023-04-05T05:56:51;98182.56;;;20.65;29.38
20160;BME280;50187;50.492;12.134;2023-04-05T05:59:36;98166.34;;;20.65;29.58
20160;BME280;50187;50.492;12.134;2023-04-05T06:02:21;98172.75;;;20.64;29.45
20160;BME280;50187;50.492;12.134;2023-04-05T06:05:07;98169.75;;;20.67;29.51
20160;BME280;50187;50.492;12.134;2023-04-05T06:07:52;98172.44;;;20.67;29.34
20160;BME280;50187;50.492;12.134;2023-04-05T06:10:37;98169.63;;;20.58;29.58
20160;BME280;50187;50.492;12.134;2023-04-05T06:13:23;98171.34;;;20.59;29.48
20160;BME280;50187;50.492;12.134;2023-04-05T06:16:08;98170.88;;;20.64;29.51
20160;BME280;50187;50.492;12.134;2023-04-05T06:18:54;98169.22;;;20.63;29.52
20160;BME280;50187;50.492;12.134;2023-04-05T06:21:40;98169.91;;;20.65;29.55
20160;BME280;50187;50.492;12.134;2023-04-05T06:24:25;98170.06;;;20.64;29.56
20160;BME280;50187;50.492;12.134;2023-04-05T06:27:10;98176.44;;;20.63;29.51
20160;BME280;50187;50.492;12.134;2023-04-05T06:29:59;98172.44;;;20.67;29.48
20160;BME280;50187;50.492;12.134;2023-04-05T06:32:44;98161.78;;;20.65;29.41
20160;BME280;50187;50.492;12.134;2023-04-05T06:35:30;98167.47;;;20.72;29.27
20160;BME280;50187;50.492;12.134;2023-04-05T06:38:16;98170.50;;;20.69;29.50
20160;BME280;50187;50.492;12.134;2023-04-05T06:41:01;98163.47;;;20.76;29.42
20160;BME280;50187;50.492;12.134;2023-04-05T06:43:47;98155.06;;;20.79;29.33
20160;BME280;50187;50.492;12.134;2023-04-05T06:46:32;98160.47;;;20.79;29.46
20160;BME280;50187;50.492;12.134;2023-04-05T06:49:17;98162.84;;;20.82;29.50
20160;BME280;50187;50.492;12.134;2023-04-05T06:52:02;98169.50;;;20.88;29.18
20160;BME280;50187;50.492;12.134;2023-04-05T06:54:49;98170.22;;;20.90;29.24
20160;BME280;50187;50.492;12.134;2023-04-05T06:57:35;98164.66;;;20.91;29.42
20160;BME280;50187;50.492;12.134;2023-04-05T07:00:20;98162.31;;;20.97;29.10
20160;BME280;50187;50.492;12.134;2023-04-05T07:03:05;98152.13;;;20.90;29.21
20160;BME280;50187;50.492;12.134;2023-04-05T07:05:58;98166.56;;;20.99;29.35
20160;BME280;50187;50.492;12.134;2023-04-05T07:08:44;98169.84;;;21.03;29.11
20160;BME280;50187;50.492;12.134;2023-04-05T07:11:29;98161.25;;;21.07;28.93
20160;BME280;50187;50.492;12.134;2023-04-05T07:14:16;98163.50;;;21.12;29.22
20160;BME280;50187;50.492;12.134;2023-04-05T07:17:03;98162.50;;;21.13;29.12
20160;BME280;50187;50.492;12.134;2023-04-05T07:19:49;98153.38;;;21.14;28.96
20160;BME280;50187;50.492;12.134;2023-04-05T07:22:34;98154.78;;;21.18;28.98
20160;BME280;50187;50.492;12.134;2023-04-05T07:25:19;98149.53;;;21.17;29.12
20160;BME280;50187;50.492;12.134;2023-04-05T07:28:05;98149.28;;;21.28;28.85
20160;BME280;50187;50.492;12.134;2023-04-05T07:30:50;98156.22;;;21.31;28.92
20160;BME280;50187;50.492;12.134;2023-04-05T07:33:36;98139.84;;;21.32;28.82
20160;BME280;50187;50.492;12.134;2023-04-05T07:36:21;98148.81;;;21.33;29.04
20160;BME280;50187;50.492;12.134;2023-04-05T07:39:06;98143.78;;;21.38;28.93
20160;BME280;50187;50.492;12.134;2023-04-05T07:41:51;98159.41;;;21.44;28.82
20160;BME280;50187;50.492;12.134;2023-04-05T07:44:36;98138.06;;;21.41;28.80
20160;BME280;50187;50.492;12.134;2023-04-05T07:47:21;98150.28;;;21.45;28.76
20160;BME280;50187;50.492;12.134;2023-04-05T07:50:06;98148.09;;;21.49;28.83
20160;BME280;50187;50.492;12.134;2023-04-05T07:52:54;98149.50;;;21.53;28.71
20160;BME280;50187;50.492;12.134;2023-04-05T07:55:39;98148.75;;;21.60;28.61
20160;BME280;50187;50.492;12.134;2023-04-05T07:58:25;98135.25;;;21.69;28.72
20160;BME280;50187;50.492;12.134;2023-04-05T08:01:14;98140.03;;;21.75;28.45
20160;BME280;50187;50.492;12.134;2023-04-05T08:03:59;98151.53;;;21.77;28.45
20160;BME280;50187;50.492;12.134;2023-04-05T08:06:46;98142.03;;;21.73;28.49
20160;BME280;50187;50.492;12.134;2023-04-05T08:09:31;98138.72;;;21.79;28.36
20160;BME280;50187;50.492;12.134;2023-04-05T08:12:17;98129.25;;;21.83;28.43
20160;BME280;50187;50.492;12.134;2023-04-05T08:15:03;98136.00;;;21.79;28.69
20160;BME280;50187;50.492;12.134;2023-04-05T08:17:49;98141.63;;;21.86;28.60
20160;BME280;50187;50.492;12.134;2023-04-05T08:20:37;98135.34;;;21.85;28.53
20160;BME280;50187;50.492;12.134;2023-04-05T08:23:24;98126.16;;;21.78;28.45
20160;BME280;50187;50.492;12.134;2023-04-05T08:26:09;98117.03;;;21.79;28.47
20160;BME280;50187;50.492;12.134;2023-04-05T08:28:55;98135.13;;;21.78;28.56
20160;BME280;50187;50.492;12.134;2023-04-05T08:31:40;98137.53;;;21.82;28.59
20160;BME280;50187;50.492;12.134;2023-04-05T08:34:25;98122.06;;;21.74;28.66
20160;BME280;50187;50.492;12.134;2023-04-05T08:37:10;98121.84;;;21.67;28.70
20160;BME280;50187;50.492;12.134;2023-04-05T08:39:55;98126.09;;;21.70;28.71
20160;BME280;50187;50.492;12.134;2023-04-05T08:42:45;98121.81;;;21.59;28.81
20160;BME280;50187;50.492;12.134;2023-04-05T08:45:32;98115.44;;;21.50;28.96
20160;BME280;50187;50.492;12.134;2023-04-05T08:48:19;98130.84;;;21.50;28.88
20160;BME280;50187;50.492;12.134;2023-04-05T08:51:05;98119.47;;;21.46;29.11
20160;BME280;50187;50.492;12.134;2023-04-05T08:53:50;98117.25;;;21.41;28.92
20160;BME280;50187;50.492;12.134;2023-04-05T08:56:37;98120.94;;;21.40;29.01
20160;BME280;50187;50.492;12.134;2023-04-05T08:59:22;98125.69;;;21.38;29.05
20160;BME280;50187;50.492;12.134;2023-04-05T09:02:17;98109.84;;;21.25;29.09
20160;BME280;50187;50.492;12.134;2023-04-05T09:05:07;98119.81;;;21.25;29.11
20160;BME280;50187;50.492;12.134;2023-04-05T09:07:56;98117.97;;;21.25;29.39
20160;BME280;50187;50.492;12.134;2023-04-05T09:10:42;98117.97;;;21.25;29.10
20160;BME280;50187;50.492;12.134;2023-04-05T09:13:28;98125.69;;;21.20;29.32
20160;BME280;50187;50.492;12.134;2023-04-05T09:16:14;98120.28;;;21.20;29.24
20160;BME280;50187;50.492;12.134;2023-04-05T09:19:00;98099.03;;;21.07;29.42
20160;BME280;50187;50.492;12.134;2023-04-05T09:22:03;98106.00;;;21.10;29.50
20160;BME280;50187;50.492;12.134;2023-04-05T09:24:53;98138.88;;;21.15;29.39
20160;BME280;50187;50.492;12.134;2023-04-05T09:27:53;98113.47;;;21.16;29.35
20160;BME280;50187;50.492;12.134;2023-04-05T09:30:45;98109.38;;;21.12;29.40
20160;BME280;50187;50.492;12.134;2023-04-05T09:33:31;98103.38;;;21.00;29.33
20160;BME280;50187;50.492;12.134;2023-04-05T09:36:17;98116.00;;;21.09;29.42
20160;BME280;50187;50.492;12.134;2023-04-05T09:39:07;98105.84;;;21.12;29.41
20160;BME280;50187;50.492;12.134;2023-04-05T09:47:38;98114.28;;;21.08;29.27
20160;BME280;50187;50.492;12.134;2023-04-05T09:50:25;98114.13;;;21.10;29.38
20160;BME280;50187;50.492;12.134;2023-04-05T09:53:12;98103.81;;;21.14;29.32
20160;BME280;50187;50.492;12.134;2023-04-05T09:56:08;98102.97;;;21.13;29.30
20160;BME280;50187;50.492;12.134;2023-04-05T09:58:59;98103.78;;;21.05;29.55
20160;BME280;50187;50.492;12.134;2023-04-05T10:01:50;98085.69;;;21.06;29.30
20160;BME280;50187;50.492;12.134;2023-04-05T10:04:40;98112.09;;;21.12;29.17
20160;BME280;50187;50.492;12.134;2023-04-05T10:07:25;98096.56;;;21.32;29.22
20160;BME280;50187;50.492;12.134;2023-04-05T10:10:11;98101.97;;;21.32;29.05
20160;BME280;50187;50.492;12.134;2023-04-05T10:12:57;98090.44;;;21.30;29.04
20160;BME280;50187;50.492;12.134;2023-04-05T10:15:46;98090.03;;;21.25;29.31
20160;BME280;50187;50.492;12.134;2023-04-05T10:18:39;98077.31;;;21.17;29.36
20160;BME280;50187;50.492;12.134;2023-04-05T10:21:29;98076.78;;;21.14;29.24
20160;BME280;50187;50.492;12.134;2023-04-05T10:24:17;98098.31;;;21.23;29.21
20160;BME280;50187;50.492;12.134;2023-04-05T10:27:15;98093.72;;;21.16;29.24
20160;BME280;50187;50.492;12.134;2023-04-05T10:30:04;98087.06;;;21.10;29.25
20160;BME280;50187;50.492;12.134;2023-04-05T10:33:05;98090.44;;;21.12;29.42
20160;BME280;50187;50.492;12.134;2023-04-05T10:35:59;98089.47;;;21.13;29.27
20160;BME280;50187;50.492;12.134;2023-04-05T10:39:03;98095.56;;;21.15;29.16
20160;BME280;50187;50.492;12.134;2023-04-05T10:41:59;98078.31;;;21.16;29.29
20160;BME280;50187;50.492;12.134;2023-04-05T10:44:52;98071.91;;;21.17;29.34
20160;BME280;50187;50.492;12.134;2023-04-05T10:47:58;98080.59;;;21.29;29.06
20160;BME280;50187;50.492;12.134;2023-04-05T10:50:46;98072.03;;;21.34;29.01
20160;BME280;50187;50.492;12.134;2023-04-05T10:53:32;98083.88;;;21.33;29.07
20160;BME280;50187;50.492;12.134;2023-04-05T10:56:19;98093.69;;;21.34;29.10
20160;BME280;50187;50.492;12.134;2023-04-05T10:59:05;98070.34;;;21.33;29.04
20160;BME280;50187;50.492;12.134;2023-04-05T11:01:52;98082.78;;;21.43;29.04
20160;BME280;50187;50.492;12.134;2023-04-05T11:04:39;98066.00;;;21.40;29.10
20160;BME280;50187;50.492;12.134;2023-04-05T11:07:41;98065.50;;;21.44;29.00
20160;BME280;50187;50.492;12.134;2023-04-05T11:10:28;98069.44;;;21.50;29.13
20160;BME280;50187;50.492;12.134;2023-04-05T11:13:13;98049.97;;;21.47;28.90
20160;BME280;50187;50.492;12.134;2023-04-05T11:16:08;98072.88;;;21.52;28.95
20160;BME280;50187;50.492;12.134;2023-04-05T11:18:53;98050.28;;;21.43;28.93
20160;BME280;50187;50.492;12.134;2023-04-05T11:21:39;98059.25;;;21.44;28.95
20160;BME280;50187;50.492;12.134;2023-04-05T11:27:59;98056.94;;;21.49;28.89
20160;BME280;50187;50.492;12.134;2023-04-05T11:30:49;98044.22;;;21.50;28.89
20160;BME280;50187;50.492;12.134;2023-04-05T11:33:52;98043.41;;;21.49;29.02
20160;BME280;50187;50.492;12.134;2023-04-05T11:36:44;98045.88;;;21.42;29.09
20160;BME280;50187;50.492;12.134;2023-04-05T11:39:31;98039.47;;;21.43;29.10
20160;BME280;50187;50.492;12.134;2023-04-05T11:42:16;98045.22;;;21.49;29.03
20160;BME280;50187;50.492;12.134;2023-04-05T11:45:03;98040.31;;;21.44;28.85
20160;BME280;50187;50.492;12.134;2023-04-05T11:47:48;98030.81;;;21.40;29.09
20160;BME280;50187;50.492;12.134;2023-04-05T11:50:36;98027.78;;;21.43;29.13
20160;BME280;50187;50.492;12.134;2023-04-05T11:53:22;98025.38;;;21.40;29.07
20160;BME280;50187;50.492;12.134;2023-04-05T11:56:10;98022.91;;;21.47;29.00
20160;BME280;50187;50.492;12.134;2023-04-05T11:58:57;98029.88;;;21.49;29.07
20160;BME280;50187;50.492;12.134;2023-04-05T12:01:44;98022.75;;;21.48;28.98
20160;BME280;50187;50.492;12.134;2023-04-05T12:04:30;98020.88;;;21.49;28.85
20160;BME280;50187;50.492;12.134;2023-04-05T12:07:17;98019.31;;;21.46;29.05
20160;BME280;50187;50.492;12.134;2023-04-05T12:12:52;98008.50;;;21.46;29.08
20160;BME280;50187;50.492;12.134;2023-04-05T12:15:38;97986.13;;;21.36;28.89
20160;BME280;50187;50.492;12.134;2023-04-05T12:18:27;98005.97;;;21.44;28.89
20160;BME280;50187;50.492;12.134;2023-04-05T12:21:14;97985.06;;;21.28;28.95
20160;BME280;50187;50.492;12.134;2023-04-05T12:23:59;97987.44;;;21.32;29.10
20160;BME280;50187;50.492;12.134;2023-04-05T12:26:44;97999.81;;;21.34;29.09
20160;BME280;50187;50.492;12.134;2023-04-05T12:29:30;97988.81;;;21.36;29.04
20160;BME280;50187;50.492;12.134;2023-04-05T12:32:15;97988.81;;;21.36;28.99
20160;BME280;50187;50.492;12.134;2023-04-05T12:35:05;97995.72;;;21.30;28.82
20160;BME280;50187;50.492;12.134;2023-04-05T12:37:50;98002.47;;;21.26;28.98
20160;BME280;50187;50.492;12.134;2023-04-05T12:40:39;97974.50;;;21.17;29.10
20160;BME280;50187;50.492;12.134;2023-04-05T12:43:24;97983.19;;;21.21;29.18
20160;BME280;50187;50.492;12.134;2023-04-05T12:46:16;97976.53;;;21.15;29.01
20160;BME280;50187;50.492;12.134;2023-04-05T12:49:03;97973.97;;;21.14;29.18
20160;BME280;50187;50.492;12.134;2023-04-05T12:51:48;97976.78;;;21.04;29.18
20160;BME280;50187;50.492;12.134;2023-04-05T12:54:34;97971.34;;;20.96;29.34
20160;BME280;50187;50.492;12.134;2023-04-05T12:57:28;97960.53;;;20.78;29.35
20160;BME280;50187;50.492;12.134;2023-04-05T13:00:14;97975.97;;;20.85;29.52
20160;BME280;50187;50.492;12.134;2023-04-05T13:02:59;97967.78;;;20.77;29.41
20160;BME280;50187;50.492;12.134;2023-04-05T13:05:48;97962.03;;;20.72;29.52
20160;BME280;50187;50.492;12.134;2023-04-05T13:08:33;97966.56;;;20.71;29.52
20160;BME280;50187;50.492;12.134;2023-04-05T13:11:18;97969.59;;;20.68;29.39
20160;BME280;50187;50.492;12.134;2023-04-05T13:14:03;97970.59;;;20.67;29.41
20160;BME280;50187;50.492;12.134;2023-04-05T13:16:49;97961.75;;;20.65;29.20
20160;BME280;50187;50.492;12.134;2023-04-05T13:19:34;97965.03;;;20.69;29.22
20160;BME280;50187;50.492;12.134;2023-04-05T13:22:20;97941.13;;;20.64;29.34
20160;BME280;50187;50.492;12.134;2023-04-05T13:25:06;97963.03;;;20.71;29.36
20160;BME280;50187;50.492;12.134;2023-04-05T13:27:52;97958.84;;;20.76;29.10
20160;BME280;50187;50.492;12.134;2023-04-05T13:30:37;97952.44;;;20.78;29.22
20160;BME280;50187;50.492;12.134;2023-04-05T13:33:22;97944.41;;;20.68;29.15
20160;BME280;50187;50.492;12.134;2023-04-05T13:36:08;97950.06;;;20.74;29.29
20160;BME280;50187;50.492;12.134;2023-04-05T13:38:54;97940.25;;;20.73;29.12
20160;BME280;50187;50.492;12.134;2023-04-05T13:41:39;97939.00;;;20.68;29.21
20160;BME280;50187;50.492;12.134;2023-04-05T13:44:25;97942.69;;;20.67;29.35
20160;BME280;50187;50.492;12.134;2023-04-05T13:47:10;97939.97;;;20.67;29.21
20160;BME280;50187;50.492;12.134;2023-04-05T13:49:55;97935.47;;;20.67;29.24
20160;BME280;50187;50.492;12.134;2023-04-05T13:52:40;97935.31;;;20.69;29.26
20160;BME280;50187;50.492;12.134;2023-04-05T13:55:26;97938.69;;;20.71;29.29
20160;BME280;50187;50.492;12.134;2023-04-05T13:58:12;97912.25;;;20.65;29.20
20160;BME280;50187;50.492;12.134;2023-04-05T14:00:58;97926.00;;;20.71;29.28
20160;BME280;50187;50.492;12.134;2023-04-05T14:03:43;97928.88;;;20.70;29.25
20160;BME280;50187;50.492;12.134;2023-04-05T14:06:29;97926.38;;;20.58;29.29
20160;BME280;50187;50.492;12.134;2023-04-05T14:09:14;97923.25;;;20.63;29.30
20160;BME280;50187;50.492;12.134;2023-04-05T14:12:34;97888.63;;;20.22;29.48
20160;BME280;50187;50.492;12.134;2023-04-05T14:15:19;97906.63;;;20.58;29.43
20160;BME280;50187;50.492;12.134;2023-04-05T14:18:04;97901.31;;;20.48;29.54
20160;BME280;50187;50.492;12.134;2023-04-05T14:20:50;97915.50;;;20.50;29.44
20160;BME280;50187;50.492;12.134;2023-04-05T14:23:35;97912.59;;;20.44;29.55
20160;BME280;50187;50.492;12.134;2023-04-05T14:26:22;97880.75;;;20.29;29.70
20160;BME280;50187;50.492;12.134;2023-04-05T14:29:08;97902.94;;;20.41;29.54
20160;BME280;50187;50.492;12.134;2023-04-05T14:31:54;97894.84;;;20.41;29.78
20160;BME280;50187;50.492;12.134;2023-04-05T14:34:40;97880.44;;;20.32;29.49
20160;BME280;50187;50.492;12.134;2023-04-05T14:37:25;97899.69;;;20.37;29.59
20160;BME280;50187;50.492;12.134;2023-04-05T14:40:10;97910.34;;;20.39;29.71
20160;BME280;50187;50.492;12.134;2023-04-05T14:42:55;97901.56;;;20.37;29.43
20160;BME280;50187;50.492;12.134;2023-04-05T14:45:41;97882.25;;;20.32;29.63
20160;BME280;50187;50.492;12.134;2023-04-05T14:48:26;97897.00;;;20.37;29.42
20160;BME280;50187;50.492;12.134;2023-04-05T14:51:14;97886.66;;;20.33;29.61
20160;BME280;50187;50.492;12.134;2023-04-05T14:53:59;97890.09;;;20.35;29.48
20160;BME280;50187;50.492;12.134;2023-04-05T14:56:44;97890.59;;;20.38;29.60